Time;durP1;ratioP1;P1;durP2;ratioP2;P2;SDS_P1;SDS_P2;PMS_P1;PMS_P2;Temp;Humidity;BMP_temperature;BMP_pressure;BME280_temperature;BME280_humidity;BME280_pressure;Samples;Min_cycle;Max_cycle;Signal;HPM_P1;HPM_P2
2023/05/12 00:02:13;;;;;;;;;;;;;;;4.51;82.33;96836.34;5096113;28;20343;-67
2023/05/12 00:04:40;;;;;;;;;;;;;;;4.49;82.17;96838.13;5095968;28;19928;-68
2023/05/12 00:07:09;;;;;;;;;;;;;;;4.48;81.99;96839.00;5095932;28;20010;-67
2023/05/12 00:09:36;;;;;;;;;;;;;;;4.45;81.98;96832.09;5095910;28;19966;-68
2023/05/12 00:12:03;;;;;;;;;;;;;;;4.49;81.69;96832.94;5095740;28;20003;-67
2023/05/12 00:14:29;;;;;;;;;;;;;;;4.50;81.27;96830.34;5095940;28;19920;-70
2023/05/12 00:16:56;;;;;;;;;;;;;;;4.52;81.24;96835.50;5095849;28;19959;-68
2023/05/12 00:19:23;;;;;;;;;;;;;;;4.54;81.10;96838.91;5095638;28;19978;-67
2023/05/12 00:21:50;;;;;;;;;;;;;;;4.58;80.80;96844.94;5095789;28;19920;-66
2023/05/12 00:24:18;;;;;;;;;;;;;;;4.63;80.51;96840.56;5095646;28;19923;-66
2023/05/12 00:26:44;;;;;;;;;;;;;;;4.62;80.45;96841.44;5095559;28;19926;-69
2023/05/12 00:29:12;;;;;;;;;;;;;;;4.66;80.49;96841.41;5095498;28;19919;-68
2023/05/12 00:31:39;;;;;;;;;;;;;;;4.71;79.84;96835.31;5095628;28;19924;-68
2023/05/12 00:34:05;;;;;;;;;;;;;;;4.74;79.48;96843.06;5095459;28;19934;-66
2023/05/12 00:36:32;;;;;;;;;;;;;;;4.72;79.31;96837.06;5095387;28;19927;-67
2023/05/12 00:38:59;;;;;;;;;;;;;;;4.62;79.54;96837.13;5095423;28;19950;-67
2023/05/12 00:41:27;;;;;;;;;;;;;;;4.58;79.72;96834.59;5095427;28;19955;-66
2023/05/12 00:43:55;;;;;;;;;;;;;;;4.56;80.17;96824.22;5095297;28;19942;-66
2023/05/12 00:46:21;;;;;;;;;;;;;;;4.52;79.75;96832.91;5095312;28;19920;-67
2023/05/12 00:48:49;;;;;;;;;;;;;;;4.53;79.60;96827.72;5094935;28;20438;-66
2023/05/12 00:51:16;;;;;;;;;;;;;;;4.54;80.96;96825.97;5095031;28;19924;-68
2023/05/12 00:53:43;;;;;;;;;;;;;;;4.58;81.60;96825.09;5095065;28;19927;-65
2023/05/12 00:56:10;;;;;;;;;;;;;;;4.53;81.74;96826.84;5095114;28;20266;-69
2023/05/12 00:58:38;;;;;;;;;;;;;;;4.53;81.66;96826.84;5094939;28;19920;-68
2023/05/12 01:01:05;;;;;;;;;;;;;;;4.60;81.49;96825.91;5095125;28;20332;-68
2023/05/12 01:03:32;;;;;;;;;;;;;;;4.58;81.26;96827.69;5095035;28;20373;-68
2023/05/12 01:06:01;;;;;;;;;;;;;;;4.56;80.81;96824.22;5094834;28;19920;-67
2023/05/12 01:08:28;;;;;;;;;;;;;;;4.62;80.63;96828.50;5094732;28;20006;-66
2023/05/12 01:10:55;;;;;;;;;;;;;;;4.60;80.94;96830.25;5094756;28;20010;-68
2023/05/12 01:13:22;;;;;;;;;;;;;;;4.58;81.08;96827.69;5094883;28;20413;-67
2023/05/12 01:15:52;;;;;;;;;;;;;;;4.57;80.13;96823.34;5094747;28;20018;-68
2023/05/12 01:18:20;;;;;;;;;;;;;;;4.59;80.28;96831.09;5094150;28;20007;-68
2023/05/12 01:20:48;;;;;;;;;;;;;;;4.61;80.16;96829.38;5094576;28;20363;-66
2023/05/12 01:23:17;;;;;;;;;;;;;;;4.63;79.57;96831.06;5094589;28;19974;-66
2023/05/12 01:25:44;;;;;;;;;;;;;;;4.60;79.91;96830.25;5094484;28;19920;-66
2023/05/12 01:28:13;;;;;;;;;;;;;;;4.59;80.03;96829.38;5094441;28;19965;-65
2023/05/12 01:30:41;;;;;;;;;;;;;;;4.54;80.94;96825.97;5094497;28;19965;-66
2023/05/12 01:33:08;;;;;;;;;;;;;;;4.54;81.00;96831.16;5094286;28;19978;-68
2023/05/12 01:35:35;;;;;;;;;;;;;;;4.55;81.12;96832.88;5094257;28;20011;-66
2023/05/12 01:38:03;;;;;;;;;;;;;;;4.54;80.58;96828.56;5094161;28;19926;-69
2023/05/12 01:40:29;;;;;;;;;;;;;;;4.53;80.64;96835.50;5094195;28;19920;-68
2023/05/12 01:42:56;;;;;;;;;;;;;;;4.52;80.18;96835.50;5094324;28;19920;-66
2023/05/12 01:45:25;;;;;;;;;;;;;;;4.44;80.17;96827.78;5094046;28;19926;-67
2023/05/12 01:47:52;;;;;;;;;;;;;;;4.45;80.56;96829.50;5093894;28;19977;-69
2023/05/12 01:50:18;;;;;;;;;;;;;;;4.46;80.28;96836.44;5094145;28;19924;-66
2023/05/12 01:52:46;;;;;;;;;;;;;;;4.47;80.18;96837.25;5094009;28;19920;-69
2023/05/12 01:55:12;;;;;;;;;;;;;;;4.46;79.70;96832.97;5094023;28;20011;-67
2023/05/12 01:57:39;;;;;;;;;;;;;;;4.45;79.22;96837.28;5093964;28;19965;-67
2023/05/12 02:00:07;;;;;;;;;;;;;;;4.33;79.26;96838.25;5094030;28;19972;-68
2023/05/12 02:02:35;;;;;;;;;;;;;;;4.33;79.41;96834.81;5093953;28;19920;-69
2023/05/12 02:05:02;;;;;;;;;;;;;;;4.35;79.36;96835.63;5093973;28;19920;-68
2023/05/12 02:07:30;;;;;;;;;;;;;;;4.31;79.58;96829.63;5093857;28;19923;-65
2023/05/12 02:09:57;;;;;;;;;;;;;;;4.30;79.66;96830.50;5093731;28;20288;-68
2023/05/12 02:12:23;;;;;;;;;;;;;;;4.34;79.55;96827.03;5093743;28;19924;-65
2023/05/12 02:14:50;;;;;;;;;;;;;;;4.32;79.42;96831.34;5093849;28;19920;-66
2023/05/12 02:17:17;;;;;;;;;;;;;;;4.29;79.45;96833.97;5093666;28;19971;-66
2023/05/12 02:19:45;;;;;;;;;;;;;;;4.20;79.34;96831.44;5093751;28;20011;-68
2023/05/12 02:22:12;;;;;;;;;;;;;;;4.06;79.81;96828.97;5093669;28;19966;-66
2023/05/12 02:24:38;;;;;;;;;;;;;;;4.03;79.95;96835.88;5093555;28;19931;-67
2023/05/12 02:27:06;;;;;;;;;;;;;;;4.02;80.01;96834.16;5093496;28;20414;-69
2023/05/12 02:29:33;;;;;;;;;;;;;;;4.07;80.38;96833.28;5093518;28;20007;-66
2023/05/12 02:31:59;;;;;;;;;;;;;;;4.11;80.25;96830.66;5097089;28;19920;-66
2023/05/12 02:34:26;;;;;;;;;;;;;;;4.12;80.06;96826.34;5097839;28;19928;-69
2023/05/12 02:36:54;;;;;;;;;;;;;;;4.09;80.24;96824.63;5097733;28;19919;-68
2023/05/12 02:39:21;;;;;;;;;;;;;;;4.12;80.33;96827.19;5097757;28;20027;-68
2023/05/12 02:41:48;;;;;;;;;;;;;;;4.08;80.50;96830.66;5097735;28;20019;-66
2023/05/12 02:44:16;;;;;;;;;;;;;;;4.09;80.89;96823.78;5097522;28;19942;-67
2023/05/12 02:46:43;;;;;;;;;;;;;;;4.11;81.13;96827.19;5097371;28;19920;-67
2023/05/12 02:49:10;;;;;;;;;;;;;;;4.16;80.93;96826.28;5097475;28;19924;-68
2023/05/12 02:51:37;;;;;;;;;;;;;;;4.19;81.24;96827.13;5097481;28;19920;-67
2023/05/12 02:54:06;;;;;;;;;;;;;;;4.19;81.09;96827.13;5097542;28;19999;-68
2023/05/12 02:56:32;;;;;;;;;;;;;;;4.14;81.28;96829.75;5097341;28;20366;-66
2023/05/12 02:58:59;;;;;;;;;;;;;;;4.13;81.76;96826.31;5097331;28;20290;-68
2023/05/12 03:01:26;;;;;;;;;;;;;;;4.16;81.96;96828.03;5097285;28;19965;-67
2023/05/12 03:03:54;;;;;;;;;;;;;;;4.20;81.79;96839.22;5097268;28;19927;-66
2023/05/12 03:06:20;;;;;;;;;;;;;;;4.25;81.58;96833.13;5097203;28;20361;-67
2023/05/12 03:08:47;;;;;;;;;;;;;;;4.32;81.65;96836.53;5097198;28;19920;-68
2023/05/12 03:11:15;;;;;;;;;;;;;;;4.36;81.29;96832.19;5097113;28;19990;-69
2023/05/12 03:13:42;;;;;;;;;;;;;;;4.39;81.24;96835.59;5097050;28;19927;-66
2023/05/12 03:16:09;;;;;;;;;;;;;;;4.38;81.58;96839.06;5097072;28;19923;-66
2023/05/12 03:18:35;;;;;;;;;;;;;;;4.40;82.13;96842.50;5096988;28;19924;-68
2023/05/12 03:21:03;;;;;;;;;;;;;;;4.46;81.97;96846.78;5096857;28;20266;-66
2023/05/12 03:23:33;;;;;;;;;;;;;;;4.47;82.46;96838.13;5096901;28;20366;-68
2023/05/12 03:26:02;;;;;;;;;;;;;;;4.53;82.32;96842.41;5096839;28;19981;-66
2023/05/12 03:28:31;;;;;;;;;;;;;;;4.62;82.48;96847.50;5096762;28;19924;-69
2023/05/12 03:30:57;;;;;;;;;;;;;;;4.66;82.49;96853.50;5096783;28;19920;-66
2023/05/12 03:33:25;;;;;;;;;;;;;;;4.65;82.25;96846.59;5096602;28;19920;-68
2023/05/12 03:35:56;;;;;;;;;;;;;;;4.68;82.70;96854.34;5096724;28;20301;-67
2023/05/12 03:38:23;;;;;;;;;;;;;;;4.77;82.76;96862.06;5096531;28;20018;-66
2023/05/12 03:40:52;;;;;;;;;;;;;;;4.83;82.68;96858.53;5096571;28;19978;-67
2023/05/12 03:43:20;;;;;;;;;;;;;;;4.84;83.29;96859.41;5096278;28;19924;-69
2023/05/12 03:45:48;;;;;;;;;;;;;;;4.91;83.31;96866.25;5096536;28;19982;-66
2023/05/12 03:48:15;;;;;;;;;;;;;;;4.99;83.67;96861.81;5096132;28;19927;-66
2023/05/12 03:50:42;;;;;;;;;;;;;;;5.07;83.52;96869.53;5096316;28;19926;-68
2023/05/12 03:53:09;;;;;;;;;;;;;;;5.14;83.24;96871.19;5096289;28;20014;-67
2023/05/12 03:55:36;;;;;;;;;;;;;;;5.16;83.80;96873.75;5096364;28;19974;-65
2023/05/12 03:58:03;;;;;;;;;;;;;;;5.21;83.58;96881.50;5096133;28;19926;-66
2023/05/12 04:00:29;;;;;;;;;;;;;;;5.31;83.77;96883.09;5096167;28;20295;-66
2023/05/12 04:02:57;;;;;;;;;;;;;;;5.37;83.90;96883.03;5096188;28;19999;-69
2023/05/12 04:05:24;;;;;;;;;;;;;;;5.46;84.38;96887.25;5096142;28;20003;-68
2023/05/12 04:07:52;;;;;;;;;;;;;;;5.43;84.46;96884.69;5095929;28;20361;-68
2023/05/12 04:10:18;;;;;;;;;;;;;;;5.52;84.87;96888.91;5096051;28;19920;-69
2023/05/12 04:12:45;;;;;;;;;;;;;;;5.62;85.01;96890.50;5095905;28;19974;-66
2023/05/12 04:15:13;;;;;;;;;;;;;;;5.74;85.07;96888.63;5095902;28;19926;-70
2023/05/12 04:17:40;;;;;;;;;;;;;;;5.80;85.58;96886.81;5095918;28;19920;-69
2023/05/12 04:20:09;;;;;;;;;;;;;;;5.92;85.48;96893.59;5095704;28;20518;-66
2023/05/12 04:22:36;;;;;;;;;;;;;;;5.97;85.82;96885.75;5095615;28;19971;-67
2023/05/12 04:25:03;;;;;;;;;;;;;;;6.10;85.87;96891.63;5095971;28;19920;-68
2023/05/12 04:27:30;;;;;;;;;;;;;;;6.22;86.15;96892.31;5095605;28;20397;-66
2023/05/12 04:29:57;;;;;;;;;;;;;;;6.30;86.79;96895.69;5095626;28;19966;-69
2023/05/12 04:32:24;;;;;;;;;;;;;;;6.38;86.25;96898.19;5095464;28;19927;-66
2023/05/12 04:34:51;;;;;;;;;;;;;;;6.45;86.13;96894.59;5095414;28;19998;-67
2023/05/12 04:37:21;;;;;;;;;;;;;;;6.55;86.01;96895.28;5095609;28;19959;-66
2023/05/12 04:39:48;;;;;;;;;;;;;;;6.58;86.30;96900.44;5095509;28;19927;-69
2023/05/12 04:42:15;;;;;;;;;;;;;;;6.69;86.56;96893.31;5095333;28;19920;-68
2023/05/12 04:44:44;;;;;;;;;;;;;;;6.82;86.26;96895.72;5095199;28;19927;-68
2023/05/12 04:47:12;;;;;;;;;;;;;;;6.91;85.40;96899.91;5095029;28;20393;-69
2023/05/12 04:49:39;;;;;;;;;;;;;;;7.01;84.78;96903.22;5095287;28;19963;-67
2023/05/12 04:52:06;;;;;;;;;;;;;;;7.09;84.70;96901.31;5095016;28;19920;-66
2023/05/12 04:54:34;;;;;;;;;;;;;;;7.14;84.70;96893.44;5094268;28;19920;-67
2023/05/12 04:57:02;;;;;;;;;;;;;;;7.27;84.88;96901.84;5095050;28;19924;-68
2023/05/12 04:59:30;;;;;;;;;;;;;;;7.37;84.47;96899.94;5095186;28;19927;-68
2023/05/12 05:01:57;;;;;;;;;;;;;;;7.44;84.06;96889.34;5095006;28;19920;-66
2023/05/12 05:04:24;;;;;;;;;;;;;;;7.56;83.19;96896.06;5094824;28;20349;-69
2023/05/12 05:06:51;;;;;;;;;;;;;;;7.68;83.46;96899.34;5094964;28;19924;-65
2023/05/12 05:09:18;;;;;;;;;;;;;;;7.79;83.27;96901.69;5094931;28;19927;-69
2023/05/12 05:11:47;;;;;;;;;;;;;;;7.86;82.70;96900.69;5094808;28;19989;-66
2023/05/12 05:14:14;;;;;;;;;;;;;;;7.97;83.58;96905.66;5094715;28;19974;-68
2023/05/12 05:16:41;;;;;;;;;;;;;;;8.12;83.07;96906.22;5094680;28;19924;-66
2023/05/12 05:19:08;;;;;;;;;;;;;;;8.24;83.04;96892.91;5094809;28;19920;-68
2023/05/12 05:21:35;;;;;;;;;;;;;;;8.38;82.23;96896.94;5094569;28;20370;-67
2023/05/12 05:24:02;;;;;;;;;;;;;;;8.53;81.99;96893.09;5094551;28;19974;-69
2023/05/12 05:26:29;;;;;;;;;;;;;;;8.63;81.53;96885.94;5094514;28;19927;-66
2023/05/12 05:28:57;;;;;;;;;;;;;;;8.76;81.41;96886.50;5094549;28;19927;-69
2023/05/12 05:31:24;;;;;;;;;;;;;;;8.85;81.07;96884.50;5094403;28;19920;-68
2023/05/12 05:33:51;;;;;;;;;;;;;;;8.98;79.65;96889.44;5094437;28;19920;-67
2023/05/12 05:36:18;;;;;;;;;;;;;;;9.04;75.25;96893.63;5094406;28;20328;-69
2023/05/12 05:38:45;;;;;;;;;;;;;;;9.05;70.74;96901.41;5094238;28;19924;-66
2023/05/12 05:41:12;;;;;;;;;;;;;;;9.07;70.90;96897.03;5094292;28;20433;-69
2023/05/12 05:43:39;;;;;;;;;;;;;;;9.14;67.10;96894.22;5094118;28;20293;-67
2023/05/12 05:46:08;;;;;;;;;;;;;;;9.27;68.63;96890.38;5094052;28;20431;-68
2023/05/12 05:48:35;;;;;;;;;;;;;;;9.44;72.93;96892.53;5093894;28;19926;-67
2023/05/12 05:51:03;;;;;;;;;;;;;;;9.60;73.86;96892.97;5094196;28;19965;-68
2023/05/12 05:53:31;;;;;;;;;;;;;;;9.67;72.71;96898.03;5094319;28;19923;-69
2023/05/12 05:55:58;;;;;;;;;;;;;;;9.64;65.25;96903.31;5093939;28;20015;-66
2023/05/12 05:58:25;;;;;;;;;;;;;;;9.56;63.58;96901.78;5094157;28;19945;-66
2023/05/12 06:00:52;;;;;;;;;;;;;;;9.62;63.89;96898.16;5094346;28;20273;-69
2023/05/12 06:03:21;;;;;;;;;;;;;;;9.67;63.93;96901.50;5093919;28;20336;-68
2023/05/12 06:05:48;;;;;;;;;;;;;;;9.63;62.30;96897.22;5093719;28;20543;-69
2023/05/12 06:08:15;;;;;;;;;;;;;;;9.71;62.17;96897.03;5093785;28;20400;-66
2023/05/12 06:10:42;;;;;;;;;;;;;;;9.68;61.40;96897.09;5093785;28;19964;-69
2023/05/12 06:13:09;;;;;;;;;;;;;;;9.75;62.62;96893.41;5093755;28;19926;-67
2023/05/12 06:15:36;;;;;;;;;;;;;;;9.85;61.31;96897.47;5093962;28;19920;-68
2023/05/12 06:18:02;;;;;;;;;;;;;;;9.94;60.91;96900.72;5093707;28;20035;-66
2023/05/12 06:20:31;;;;;;;;;;;;;;;9.96;60.50;96899.78;5093779;28;19920;-68
2023/05/12 06:22:58;;;;;;;;;;;;;;;9.96;61.18;96899.78;5093768;28;20018;-66
2023/05/12 06:25:25;;;;;;;;;;;;;;;10.01;59.64;96902.25;5093641;28;20057;-69
2023/05/12 06:27:52;;;;;;;;;;;;;;;10.14;60.61;96896.66;5093682;28;19926;-69
2023/05/12 06:30:19;;;;;;;;;;;;;;;10.32;61.85;96889.97;5093639;28;19924;-67
2023/05/12 06:32:46;;;;;;;;;;;;;;;10.39;59.49;96898.50;5093429;28;19994;-66
2023/05/12 06:35:13;;;;;;;;;;;;;;;10.43;60.02;96902.72;5093517;28;19923;-69
2023/05/12 06:37:43;;;;;;;;;;;;;;;10.50;60.11;96904.28;5093588;28;20018;-69
2023/05/12 06:40:10;;;;;;;;;;;;;;;10.63;60.06;96903.88;5093535;28;20286;-66
2023/05/12 06:42:38;;;;;;;;;;;;;;;10.66;58.84;96909.03;5093379;28;19968;-66
2023/05/12 06:45:05;;;;;;;;;;;;;;;10.57;58.96;96911.00;5093514;28;20434;-68
2023/05/12 06:47:32;;;;;;;;;;;;;;;10.66;58.51;96899.44;5093342;28;19979;-68
2023/05/12 06:49:59;;;;;;;;;;;;;;;10.68;58.78;96904.59;5093561;28;19974;-69
2023/05/12 06:52:26;;;;;;;;;;;;;;;10.76;59.07;96897.34;5093417;28;20365;-68
2023/05/12 06:54:54;;;;;;;;;;;;;;;10.76;59.12;96899.97;5093621;28;19927;-68
2023/05/12 06:57:21;;;;;;;;;;;;;;;10.83;58.20;96903.22;5093436;28;20003;-68
2023/05/12 06:59:48;;;;;;;;;;;;;;;10.95;57.46;96905.44;5093280;28;19920;-67
2023/05/12 07:02:15;;;;;;;;;;;;;;;11.06;57.13;96912.94;5093253;28;19919;-66
2023/05/12 07:04:42;;;;;;;;;;;;;;;11.06;58.04;96901.59;5093206;28;20296;-68
2023/05/12 07:07:09;;;;;;;;;;;;;;;11.09;57.69;96906.72;5093256;28;19973;-66
2023/05/12 07:09:37;;;;;;;;;;;;;;;11.19;57.90;96900.28;5093209;28;20388;-67
2023/05/12 07:12:06;;;;;;;;;;;;;;;11.23;56.43;96903.66;5093229;28;20285;-68
2023/05/12 07:14:33;;;;;;;;;;;;;;;11.25;56.23;96896.56;5093093;28;19942;-69
2023/05/12 07:17:00;;;;;;;;;;;;;;;11.42;56.07;96898.63;5094773;28;19920;-67
2023/05/12 07:19:27;;;;;;;;;;;;;;;11.41;55.62;96898.66;5096912;28;19989;-67
2023/05/12 07:21:54;;;;;;;;;;;;;;;11.56;55.23;96912.97;5097185;28;20150;-69
2023/05/12 07:24:21;;;;;;;;;;;;;;;11.85;54.20;96903.19;5096942;28;19994;-68
2023/05/12 07:26:48;;;;;;;;;;;;;;;12.19;52.95;96914.19;5096879;28;19965;-67
2023/05/12 07:29:16;;;;;;;;;;;;;;;12.43;52.47;96911.53;5096765;28;19921;-69
2023/05/12 07:31:43;;;;;;;;;;;;;;;12.57;51.30;96911.81;5096744;28;19920;-67
2023/05/12 07:34:10;;;;;;;;;;;;;;;12.75;49.04;96912.84;5096622;28;20370;-67
2023/05/12 07:36:37;;;;;;;;;;;;;;;12.57;48.69;96917.06;5096854;28;19920;-69
2023/05/12 07:39:04;;;;;;;;;;;;;;;12.42;50.15;96921.16;5096647;28;20013;-67
2023/05/12 07:41:31;;;;;;;;;;;;;;;12.40;48.42;96920.34;5096541;28;19920;-68
2023/05/12 07:43:58;;;;;;;;;;;;;;;12.46;50.03;96914.88;5096401;28;20312;-67
2023/05/12 07:46:26;;;;;;;;;;;;;;;12.48;49.57;96913.06;5096619;28;20400;-68
2023/05/12 07:48:53;;;;;;;;;;;;;;;12.59;50.07;96906.53;5096359;28;19967;-69
2023/05/12 07:51:20;;;;;;;;;;;;;;;12.61;49.05;96905.53;5096429;28;19967;-67
2023/05/12 07:53:47;;;;;;;;;;;;;;;12.92;47.90;96918.31;5096218;28;19919;-68
2023/05/12 07:56:14;;;;;;;;;;;;;;;13.20;47.10;96919.78;5096480;28;20010;-67
2023/05/12 07:58:40;;;;;;;;;;;;;;;13.48;49.49;96910.69;5096217;28;19962;-68
2023/05/12 08:01:09;;;;;;;;;;;;;;;13.79;46.10;96916.41;5096179;28;19926;-69
2023/05/12 08:03:37;;;;;;;;;;;;;;;14.12;48.68;96919.25;5096105;28;19924;-68
2023/05/12 08:06:05;;;;;;;;;;;;;;;14.70;44.75;96913.94;5096065;28;19971;-67
2023/05/12 08:08:31;;;;;;;;;;;;;;;14.67;43.60;96898.31;5096023;28;19920;-67
2023/05/12 08:10:58;;;;;;;;;;;;;;;15.20;46.41;96895.72;5096038;28;19947;-67
2023/05/12 08:13:25;;;;;;;;;;;;;;;15.61;42.72;96899.78;5095790;28;20435;-69
2023/05/12 08:15:52;;;;;;;;;;;;;;;15.53;41.94;96896.66;5095854;28;19920;-68
2023/05/12 08:18:19;;;;;;;;;;;;;;;15.48;43.31;96896.94;5095836;28;20002;-67
2023/05/12 08:20:48;;;;;;;;;;;;;;;15.36;43.69;96894.94;5095890;28;20312;-67
2023/05/12 08:23:16;;;;;;;;;;;;;;;15.38;42.11;96903.63;5095806;28;19927;-67
2023/05/12 08:25:43;;;;;;;;;;;;;;;15.65;41.02;96901.31;5095906;28;20342;-67
2023/05/12 08:28:11;;;;;;;;;;;;;;;15.56;40.81;96904.41;5094672;28;20351;-66
2023/05/12 08:30:38;;;;;;;;;;;;;;;15.61;41.15;96891.00;5095709;28;19920;-67
2023/05/12 08:33:05;;;;;;;;;;;;;;;15.74;39.03;96902.59;5095532;28;20034;-66
2023/05/12 08:35:32;;;;;;;;;;;;;;;15.53;40.26;96908.06;5095688;28;19927;-65
2023/05/12 08:38:00;;;;;;;;;;;;;;;15.45;40.09;96906.78;5095477;28;19920;-65
2023/05/12 08:40:29;;;;;;;;;;;;;;;15.71;41.63;96900.13;5095453;28;20301;-65
2023/05/12 08:43:00;;;;;;;;;;;;;;;16.01;39.88;96894.16;5095351;28;19988;-64
2023/05/12 08:45:28;;;;;;;;;;;;;;;16.16;38.81;96894.25;5095574;28;19963;-64
2023/05/12 08:47:55;;;;;;;;;;;;;;;16.15;38.70;96895.19;5095086;28;20305;-66
2023/05/12 08:50:23;;;;;;;;;;;;;;;15.78;38.03;96908.56;5095243;28;20366;-65
2023/05/12 08:52:50;;;;;;;;;;;;;;;15.44;40.82;96907.72;5095195;28;20292;-64
2023/05/12 08:55:19;;;;;;;;;;;;;;;15.43;40.32;96900.72;5094950;28;20331;-64
2023/05/12 08:57:47;;;;;;;;;;;;;;;15.51;43.80;96911.72;5095335;28;19919;-65
2023/05/12 09:00:15;;;;;;;;;;;;;;;15.40;40.14;96920.19;5095099;28;19919;-64
2023/05/12 09:02:42;;;;;;;;;;;;;;;15.39;40.20;96916.69;5095353;28;19927;-66
2023/05/12 09:05:10;;;;;;;;;;;;;;;15.27;40.69;96919.97;5094981;28;19924;-66
2023/05/12 09:07:40;;;;;;;;;;;;;;;15.32;42.45;96909.19;5095142;28;20308;-65
2023/05/12 09:10:08;;;;;;;;;;;;;;;15.20;42.23;96921.22;5094953;28;20429;-65
2023/05/12 09:12:38;;;;;;;;;;;;;;;15.21;41.05;96913.25;5094986;28;19924;-66
2023/05/12 09:15:06;;;;;;;;;;;;;;;15.38;40.56;96915.00;5094558;28;19931;-65
2023/05/12 09:17:33;;;;;;;;;;;;;;;15.65;45.01;96914.50;5094928;28;20365;-65
2023/05/12 09:20:00;;;;;;;;;;;;;;;15.91;39.73;96929.88;5094707;28;19920;-65
2023/05/12 09:22:30;;;;;;;;;;;;;;;15.47;39.21;96926.84;5094543;28;19927;-66
2023/05/12 09:24:57;;;;;;;;;;;;;;;15.74;42.11;96909.69;5094535;28;19920;-65
2023/05/12 09:27:24;;;;;;;;;;;;;;;16.32;41.01;96907.47;5094549;28;19920;-67
2023/05/12 09:29:52;;;;;;;;;;;;;;;16.79;39.83;96911.00;5094717;28;19981;-67
2023/05/12 09:32:30;;;;;;;;;;;;;;;16.74;39.05;96922.78;5094371;28;19920;-66
2023/05/12 09:34:56;;;;;;;;;;;;;;;16.69;39.41;96915.09;5094466;28;19920;-66
2023/05/12 09:37:30;;;;;;;;;;;;;;;16.78;39.13;96911.09;5094375;28;19925;-67
2023/05/12 09:40:00;;;;;;;;;;;;;;;16.50;39.69;96900.28;5093870;28;19951;-66
2023/05/12 09:42:28;;;;;;;;;;;;;;;16.53;41.11;96915.13;5094238;28;19920;-66
2023/05/12 09:44:59;;;;;;;;;;;;;;;16.32;39.37;96915.41;5094385;28;19920;-66
2023/05/12 09:47:34;;;;;;;;;;;;;;;16.02;39.48;96916.13;5094027;28;19999;-65
2023/05/12 09:50:02;;;;;;;;;;;;;;;15.79;40.24;96910.28;5094417;28;19920;-67
2023/05/12 09:52:29;;;;;;;;;;;;;;;15.41;41.31;96901.66;5094204;28;19927;-68
2023/05/12 09:55:03;;;;;;;;;;;;;;;15.20;41.85;96906.25;5093942;28;19920;-68
2023/05/12 09:57:30;;;;;;;;;;;;;;;15.40;41.77;96915.78;5094028;28;20010;-68
2023/05/12 09:59:59;;;;;;;;;;;;;;;15.37;41.75;96922.97;5094056;28;20022;-66
2023/05/12 10:02:26;;;;;;;;;;;;;;;15.41;41.57;96920.13;5094007;28;20412;-67
2023/05/12 10:04:58;;;;;;;;;;;;;;;15.19;42.55;96915.09;5093912;28;19967;-68
2023/05/12 10:07:26;;;;;;;;;;;;;;;15.27;42.17;96918.19;5093888;28;20385;-67
2023/05/12 10:09:55;;;;;;;;;;;;;;;15.36;42.53;96916.00;5093996;28;20276;-67
2023/05/12 10:12:22;;;;;;;;;;;;;;;15.24;41.44;96918.34;5094005;28;19942;-66
2023/05/12 10:14:49;;;;;;;;;;;;;;;15.01;42.93;96911.59;5093766;28;19920;-66
2023/05/12 10:17:18;;;;;;;;;;;;;;;14.71;42.13;96914.78;5093710;28;19920;-67
2023/05/12 10:19:47;;;;;;;;;;;;;;;14.59;43.05;96918.88;5093796;28;19924;-69
2023/05/12 10:22:15;;;;;;;;;;;;;;;14.62;43.61;96913.44;5093665;28;20123;-67
2023/05/12 10:24:42;;;;;;;;;;;;;;;14.63;43.81;96912.56;5093627;28;19963;-66
2023/05/12 10:27:10;;;;;;;;;;;;;;;14.62;44.14;96905.56;5093633;28;19965;-67
2023/05/12 10:29:38;;;;;;;;;;;;;;;14.62;45.93;96902.91;5093574;28;19920;-67
2023/05/12 10:32:05;;;;;;;;;;;;;;;14.56;45.57;96904.09;5093553;28;20430;-66
2023/05/12 10:34:35;;;;;;;;;;;;;;;14.58;44.31;96898.75;5093425;28;19920;-65
2023/05/12 10:37:07;;;;;;;;;;;;;;;14.78;44.22;96903.91;5093580;28;20029;-66
2023/05/12 10:39:33;;;;;;;;;;;;;;;15.04;44.18;96900.91;5093677;28;19924;-65
2023/05/12 10:42:01;;;;;;;;;;;;;;;15.09;42.47;96898.06;5093824;28;19920;-66
2023/05/12 10:44:28;;;;;;;;;;;;;;;15.28;44.31;96895.31;5093506;28;19920;-66
2023/05/12 10:46:59;;;;;;;;;;;;;;;15.38;43.52;96904.47;5093395;28;19920;-66
2023/05/12 10:49:32;;;;;;;;;;;;;;;15.30;42.67;96904.00;5093445;28;20349;-66
2023/05/12 10:52:01;;;;;;;;;;;;;;;15.29;43.08;96891.75;5094972;28;19924;-65
2023/05/12 10:54:27;;;;;;;;;;;;;;;15.27;42.70;96894.47;5097474;28;20380;-66
2023/05/12 10:56:58;;;;;;;;;;;;;;;15.28;44.13;96890.91;5097477;28;19963;-66
2023/05/12 10:59:25;;;;;;;;;;;;;;;15.02;41.63;96898.34;5097458;28;19924;-67
2023/05/12 11:02:02;;;;;;;;;;;;;;;14.96;42.62;96897.81;5097281;28;20376;-66
2023/05/12 11:04:41;;;;;;;;;;;;;;;14.78;42.55;96888.13;5097605;28;19920;-68
2023/05/12 11:07:11;;;;;;;;;;;;;;;14.54;42.98;96895.38;5097127;28;19981;-67
2023/05/12 11:09:38;;;;;;;;;;;;;;;14.40;44.58;96880.28;5097241;28;20010;-65
2023/05/12 11:12:06;;;;;;;;;;;;;;;14.39;43.41;96892.59;5097326;28;19962;-66
2023/05/12 11:14:33;;;;;;;;;;;;;;;14.60;43.62;96879.31;5097055;28;19943;-66
2023/05/12 11:17:00;;;;;;;;;;;;;;;15.07;42.65;96879.69;5097301;28;19926;-66
2023/05/12 11:19:28;;;;;;;;;;;;;;;15.33;41.11;96893.31;5097079;28;19927;-67
2023/05/12 11:21:55;;;;;;;;;;;;;;;15.55;42.50;96876.38;5096975;28;19971;-67
2023/05/12 11:24:23;;;;;;;;;;;;;;;15.57;39.62;96879.78;5096863;28;19920;-68
2023/05/12 11:26:51;;;;;;;;;;;;;;;15.65;40.73;96874.06;5096977;28;19928;-67
2023/05/12 11:29:18;;;;;;;;;;;;;;;15.98;42.02;96873.22;5096832;28;19927;-67
2023/05/12 11:31:47;;;;;;;;;;;;;;;16.18;39.82;96879.19;5097027;28;19924;-66
2023/05/12 11:34:14;;;;;;;;;;;;;;;15.92;40.67;96879.66;5096787;28;19919;-65
2023/05/12 11:36:42;;;;;;;;;;;;;;;15.69;41.26;96885.31;5096742;28;20332;-66
2023/05/12 11:39:13;;;;;;;;;;;;;;;15.65;41.13;96884.63;5096774;28;19920;-65
2023/05/12 11:41:41;;;;;;;;;;;;;;;15.48;40.86;96893.44;5096619;28;20408;-65
2023/05/12 11:44:15;;;;;;;;;;;;;;;15.39;40.91;96885.06;5096492;28;19920;-66
2023/05/12 11:46:42;;;;;;;;;;;;;;;15.47;40.02;96882.03;5096346;28;19920;-65
2023/05/12 11:49:11;;;;;;;;;;;;;;;15.59;40.46;96864.72;5096424;28;19920;-66
2023/05/12 11:51:41;;;;;;;;;;;;;;;15.83;40.85;96872.25;5096325;28;20373;-65
2023/05/12 11:54:09;;;;;;;;;;;;;;;16.05;39.96;96873.75;5096457;28;19982;-66
2023/05/12 11:56:35;;;;;;;;;;;;;;;16.27;40.40;96868.13;5096289;28;19924;-66
2023/05/12 11:59:03;;;;;;;;;;;;;;;16.21;38.67;96878.16;5096382;28;19919;-67
2023/05/12 12:01:32;;;;;;;;;;;;;;;16.02;39.41;96880.03;5096288;28;19997;-65
2023/05/12 12:03:59;;;;;;;;;;;;;;;16.10;41.01;96871.69;5095832;28;19993;-67
2023/05/12 12:06:29;;;;;;;;;;;;;;;16.25;38.97;96877.91;5096214;28;19967;-65
2023/05/12 12:08:58;;;;;;;;;;;;;;;16.41;38.17;96879.72;5096173;28;19947;-66
2023/05/12 12:11:27;;;;;;;;;;;;;;;16.73;39.21;96871.72;5096054;28;20373;-66
2023/05/12 12:13:56;;;;;;;;;;;;;;;16.80;38.56;96873.06;5095999;28;19920;-65
2023/05/12 12:16:26;;;;;;;;;;;;;;;16.91;37.92;96877.72;5095886;28;19931;-66
2023/05/12 12:18:53;;;;;;;;;;;;;;;16.34;36.87;96871.28;5096161;28;19955;-65
2023/05/12 12:21:21;;;;;;;;;;;;;;;16.49;38.39;96866.91;5095942;28;19969;-66
2023/05/12 12:23:47;;;;;;;;;;;;;;;16.70;37.80;96861.34;5095767;28;20300;-65
2023/05/12 12:26:15;;;;;;;;;;;;;;;16.92;38.00;96852.19;5095987;28;19978;-65
2023/05/12 12:28:42;;;;;;;;;;;;;;;16.98;37.13;96866.81;5095843;28;19970;-65
2023/05/12 12:31:09;;;;;;;;;;;;;;;16.27;36.82;96876.06;5095678;28;20369;-66
2023/05/12 12:33:38;;;;;;;;;;;;;;;16.31;39.81;96860.88;5095786;28;19967;-65
2023/05/12 12:36:05;;;;;;;;;;;;;;;16.28;37.01;96855.78;5095585;28;19989;-66
2023/05/12 12:38:32;;;;;;;;;;;;;;;16.55;39.26;96848.09;5095559;28;19994;-66
2023/05/12 12:40:59;;;;;;;;;;;;;;;16.58;38.06;96864.69;5095469;28;19920;-65
2023/05/12 12:43:26;;;;;;;;;;;;;;;16.45;38.27;96856.59;5095408;28;19924;-67
2023/05/12 12:45:53;;;;;;;;;;;;;;;16.31;38.07;96858.25;5095406;28;19920;-67
2023/05/12 12:48:20;;;;;;;;;;;;;;;16.26;39.08;96869.06;5095068;28;19920;-66
2023/05/12 12:50:48;;;;;;;;;;;;;;;16.29;37.66;96870.69;5095184;28;19926;-65
2023/05/12 12:53:15;;;;;;;;;;;;;;;16.26;38.57;96861.13;5095269;28;20422;-66
2023/05/12 12:55:42;;;;;;;;;;;;;;;16.00;38.68;96859.94;5095113;28;19926;-68